Time;durP1;ratioP1;P1;durP2;ratioP2;P2;SDS_P1;SDS_P2;PMS_P1;PMS_P2;Temp;Humidity;BMP_temperature;BMP_pressure;BME280_temperature;BME280_humidity;BME280_pressure;Samples;Min_cycle;Max_cycle;Signal;HPM_P1;HPM_P2
2023/06/12 00:01:25;;;;;;;4.67;4.27;;;24.40;75.00;;;;;;5052376;28;20523;-60
2023/06/12 00:03:55;;;;;;;4.27;3.97;;;24.40;75.00;;;;;;5044227;28;20470;-62
2023/06/12 00:06:22;;;;;;;3.70;3.40;;;24.40;75.10;;;;;;5041431;28;22267;-60
2023/06/12 00:08:49;;;;;;;3.87;3.57;;;24.40;75.10;;;;;;5049813;28;20459;-64
2023/06/12 00:11:16;;;;;;;3.60;3.30;;;24.40;75.10;;;;;;5048409;28;20465;-63
2023/06/12 00:13:48;;;;;;;4.07;3.77;;;24.40;75.10;;;;;;5046511;28;20504;-63
2023/06/12 00:16:16;;;;;;;3.87;3.57;;;24.40;75.10;;;;;;5047650;28;20481;-63
2023/06/12 00:18:43;;;;;;;4.10;3.80;;;24.40;75.20;;;;;;5038694;28;20501;-63
2023/06/12 00:21:11;;;;;;;4.17;3.87;;;24.40;75.30;;;;;;5050947;28;20466;-62
2023/06/12 00:23:39;;;;;;;3.70;3.40;;;24.40;75.30;;;;;;5042697;28;20553;-62
2023/06/12 00:26:06;;;;;;;4.33;4.03;;;24.40;75.30;;;;;;5049176;28;20461;-63
2023/06/12 00:28:33;;;;;;;4.70;4.13;;;24.40;75.30;;;;;;5045804;28;20465;-61
2023/06/12 00:31:00;;;;;;;3.70;3.40;;;24.40;75.30;;;;;;5050548;28;20462;-62
2023/06/12 00:33:28;;;;;;;4.47;4.07;;;24.40;75.40;;;;;;5043065;28;20489;-63
2023/06/12 00:35:54;;;;;;;4.40;4.10;;;24.40;75.40;;;;;;5046571;28;20948;-62
2023/06/12 00:38:22;;;;;;;4.00;3.57;;;24.40;75.40;;;;;;5045009;28;20463;-63
2023/06/12 00:40:49;;;;;;;3.13;2.93;;;24.40;75.40;;;;;;5047633;28;20984;-62
2023/06/12 00:43:16;;;;;;;4.20;3.83;;;24.40;75.50;;;;;;5047210;28;20450;-60
2023/06/12 00:45:43;;;;;;;4.60;4.20;;;24.40;75.40;;;;;;5046401;28;20462;-61
2023/06/12 00:48:10;;;;;;;4.20;3.80;;;24.40;75.50;;;;;;5050275;28;20499;-61
2023/06/12 00:50:39;;;;;;;3.53;3.33;;;24.30;75.40;;;;;;5042724;28;20459;-64
2023/06/12 00:53:06;;;;;;;3.57;3.27;;;24.40;75.50;;;;;;5043803;28;20454;-63
2023/06/12 00:55:33;;;;;;;3.70;3.40;;;24.30;75.50;;;;;;5045538;28;20570;-63
2023/06/12 00:58:02;;;;;;;3.27;3.07;;;24.30;75.40;;;;;;5044292;28;20501;-62
2023/06/12 01:00:28;;;;;;;3.00;2.80;;;24.40;75.60;;;;;;5044371;28;20513;-62
2023/06/12 01:03:03;;;;;;;4.37;3.97;;;24.30;75.50;;;;;;5036766;28;20463;-63
2023/06/12 01:05:33;;;;;;;3.73;3.43;;;24.40;75.60;;;;;;5045479;28;20457;-63
2023/06/12 01:08:15;;;;;;;3.47;3.23;;;24.30;75.50;;;;;;5040608;28;20462;-63
2023/06/12 01:10:46;;;;;;;3.67;3.43;;;24.30;75.60;;;;;;5040900;28;20822;-63
2023/06/12 01:13:15;;;;;;;3.70;3.40;;;24.40;75.70;;;;;;5047006;28;20461;-63
2023/06/12 01:15:41;;;;;;;3.50;3.20;;;24.30;75.60;;;;;;5042302;28;20531;-63
2023/06/12 01:18:08;;;;;;;3.83;3.53;;;24.30;75.60;;;;;;5048470;28;20465;-62
2023/06/12 01:20:36;;;;;;;4.10;3.80;;;24.40;75.70;;;;;;5047674;28;20462;-64
2023/06/12 01:23:12;;;;;;;4.17;3.87;;;24.30;75.60;;;;;;5044274;28;20555;-62
2023/06/12 01:26:08;;;;;;;3.53;3.23;;;24.30;75.60;;;;;;5047330;28;20759;-62
2023/06/12 01:29:07;;;;;;;3.97;3.57;;;24.30;75.70;;;;;;5038475;28;20568;-63
2023/06/12 01:31:43;;;;;;;3.93;3.63;;;24.40;75.90;;;;;;5046276;28;20504;-62
2023/06/12 01:34:16;;;;;;;4.17;3.77;;;24.30;75.70;;;;;;5043136;28;20471;-63
2023/06/12 01:36:54;;;;;;;3.50;3.20;;;24.30;75.70;;;;;;5047940;28;20481;-62
2023/06/12 01:39:24;;;;;;;3.83;3.53;;;24.30;75.70;;;;;;5047272;28;20486;-62
2023/06/12 01:41:51;;;;;;;3.60;3.30;;;24.30;75.80;;;;;;5049385;28;20462;-62
2023/06/12 01:44:21;;;;;;;3.80;3.50;;;24.30;75.80;;;;;;5041653;28;20957;-63
2023/06/12 01:46:48;;;;;;;3.80;3.50;;;24.30;75.80;;;;;;5051940;28;20505;-63
2023/06/12 01:49:16;;;;;;;4.10;3.80;;;24.30;75.90;;;;;;5040816;28;20462;-62
2023/06/12 01:51:42;;;;;;;3.40;3.10;;;24.30;75.80;;;;;;5041508;28;20519;-62
2023/06/12 01:54:09;;;;;;;3.60;3.30;;;24.30;75.90;;;;;;5043065;28;20529;-62
2023/06/12 01:56:36;;;;;;;3.67;3.37;;;24.30;75.90;;;;;;5048610;28;20523;-63
2023/06/12 01:59:04;;;;;;;4.20;3.80;;;24.30;75.90;;;;;;5044905;28;20515;-62
2023/06/12 02:01:31;;;;;;;3.77;3.47;;;24.30;75.90;;;;;;5043007;28;20458;-62
2023/06/12 02:03:58;;;;;;;3.87;3.57;;;24.30;75.90;;;;;;5041106;28;20463;-63
2023/06/12 02:06:26;;;;;;;4.30;3.97;;;24.30;75.90;;;;;;5045081;28;20829;-62
2023/06/12 02:08:53;;;;;;;3.80;3.50;;;24.30;76.00;;;;;;5040919;28;20466;-62
2023/06/12 02:11:21;;;;;;;4.30;3.90;;;24.30;76.00;;;;;;5046548;28;20457;-62
2023/06/12 02:13:48;;;;;;;4.07;3.73;;;24.30;76.00;;;;;;5036096;28;20466;-63
2023/06/12 02:16:16;;;;;;;4.50;4.10;;;24.30;76.00;;;;;;5045692;28;20474;-63
2023/06/12 02:18:42;;;;;;;4.20;3.80;;;24.30;76.00;;;;;;5043057;28;20466;-63
2023/06/12 02:21:09;;;;;;;6.60;3.77;;;24.30;76.00;;;;;;5046999;28;20561;-62
2023/06/12 02:23:37;;;;;;;3.20;3.00;;;24.30;76.00;;;;;;5050849;28;20481;-63
2023/06/12 02:26:04;;;;;;;3.63;3.30;;;24.30;76.00;;;;;;5051849;28;20458;-62
2023/06/12 02:28:30;;;;;;;3.90;3.60;;;24.30;76.10;;;;;;5043753;28;20454;-63
2023/06/12 02:30:57;;;;;;;3.90;3.60;;;24.30;76.10;;;;;;5046205;28;20548;-62
2023/06/12 02:33:25;;;;;;;3.40;3.10;;;24.30;76.10;;;;;;5047518;28;20457;-63
2023/06/12 02:35:52;;;;;;;3.73;3.53;;;24.30;76.10;;;;;;5040990;28;20485;-63
2023/06/12 02:38:18;;;;;;;3.60;3.30;;;24.30;76.10;;;;;;5050765;28;20528;-63
2023/06/12 02:40:46;;;;;;;3.17;2.97;;;24.30;76.10;;;;;;5057924;28;20502;-62
2023/06/12 02:43:13;;;;;;;3.67;3.37;;;24.30;76.10;;;;;;5043373;28;20455;-63
2023/06/12 02:45:40;;;;;;;3.90;3.60;;;24.30;76.10;;;;;;5047581;28;20462;-63
2023/06/12 02:48:06;;;;;;;4.57;3.60;;;24.20;76.00;;;;;;5051552;28;20515;-61
2023/06/12 02:50:33;;;;;;;3.37;3.17;;;24.30;76.10;;;;;;5048223;28;20465;-63
2023/06/12 02:53:00;;;;;;;4.30;3.80;;;24.30;76.20;;;;;;5046169;28;20466;-61
2023/06/12 02:55:26;;;;;;;3.53;3.23;;;24.30;76.20;;;;;;5051609;28;20957;-62
2023/06/12 02:57:55;;;;;;;3.53;3.30;;;24.30;76.20;;;;;;5047120;28;20916;-62
2023/06/12 03:00:22;;;;;;;4.50;3.70;;;24.30;76.20;;;;;;5045377;28;20457;-63
2023/06/12 03:02:49;;;;;;;4.17;3.80;;;24.30;76.20;;;;;;5047224;28;20466;-62
2023/06/12 03:05:16;;;;;;;3.60;3.30;;;24.20;76.20;;;;;;5049764;28;20925;-62
2023/06/12 03:07:43;;;;;;;3.60;3.30;;;24.30;76.20;;;;;;5049710;28;20462;-61
2023/06/12 03:10:10;;;;;;;3.67;3.37;;;24.30;76.30;;;;;;5050955;28;20458;-62
2023/06/12 03:12:37;;;;;;;3.87;3.53;;;24.20;76.10;;;;;;5052457;28;20465;-62
2023/06/12 03:15:07;;;;;;;4.27;3.97;;;24.20;76.20;;;;;;5043618;28;20946;-63
2023/06/12 03:17:33;;;;;;;4.07;3.77;;;24.20;76.20;;;;;;5057226;28;20527;-62
2023/06/12 03:20:00;;;;;;;4.00;3.70;;;24.20;76.20;;;;;;5046651;28;20469;-62
2023/06/12 03:22:27;;;;;;;4.10;3.70;;;24.20;76.20;;;;;;5048573;28;20455;-61
2023/06/12 03:24:54;;;;;;;3.43;3.20;;;24.30;76.40;;;;;;5050762;28;20489;-62
2023/06/12 03:27:22;;;;;;;4.43;4.13;;;24.20;76.30;;;;;;5048898;28;20504;-62
2023/06/12 03:29:48;;;;;;;4.40;4.00;;;24.30;76.40;;;;;;5044355;28;20451;-62
2023/06/12 03:32:17;;;;;;;3.83;3.53;;;24.30;76.40;;;;;;5052004;28;20458;-62
2023/06/12 03:34:46;;;;;;;4.03;3.73;;;24.20;76.30;;;;;;5049092;28;20465;-62
2023/06/12 03:37:12;;;;;;;3.87;3.47;;;24.20;76.40;;;;;;5048740;28;20481;-63
2023/06/12 03:39:39;;;;;;;3.50;3.20;;;24.30;76.50;;;;;;5049374;28;20457;-62
2023/06/12 03:42:06;;;;;;;3.50;3.20;;;24.20;77.20;;;;;;5046698;28;20461;-63
2023/06/12 03:44:33;;;;;;;3.60;3.30;;;24.20;76.40;;;;;;5042571;28;20877;-62
2023/06/12 03:46:59;;;;;;;4.10;3.80;;;24.20;76.40;;;;;;5051372;28;20466;-61
2023/06/12 03:49:27;;;;;;;4.47;4.07;;;24.20;76.40;;;;;;5044254;28;20458;-62
2023/06/12 03:51:54;;;;;;;4.53;4.13;;;24.30;76.60;;;;;;5058238;28;20454;-61
2023/06/12 03:54:21;;;;;;;3.63;3.33;;;24.20;76.40;;;;;;5047961;28;20454;-62
2023/06/12 03:56:48;;;;;;;3.50;3.20;;;24.20;76.50;;;;;;5046299;28;20479;-61
2023/06/12 03:59:15;;;;;;;4.20;3.90;;;24.20;76.50;;;;;;5047873;28;20976;-62
2023/06/12 04:01:42;;;;;;;3.83;3.53;;;24.20;76.50;;;;;;5044925;28;20470;-62
2023/06/12 04:04:09;;;;;;;3.80;3.50;;;24.20;76.50;;;;;;5041534;28;20465;-62
2023/06/12 04:06:40;;;;;;;3.50;3.20;;;24.20;76.50;;;;;;5046722;28;20454;-61
2023/06/12 04:09:07;;;;;;;3.20;3.00;;;24.20;76.60;;;;;;5048264;28;20598;-62
2023/06/12 04:11:35;;;;;;;4.17;3.87;;;24.20;76.60;;;;;;5050015;28;20515;-61
2023/06/12 04:14:02;;;;;;;3.93;3.63;;;24.20;76.60;;;;;;5045181;28;20489;-61
2023/06/12 04:16:28;;;;;;;3.07;2.87;;;24.20;76.60;;;;;;5044059;28;20477;-61
2023/06/12 04:18:56;;;;;;;3.43;3.13;;;24.20;76.60;;;;;;5047002;28;20462;-62
2023/06/12 04:21:22;;;;;;;3.90;3.60;;;24.20;76.60;;;;;;5049671;28;20454;-62
2023/06/12 04:23:51;;;;;;;3.70;3.40;;;24.20;76.70;;;;;;5048669;28;20565;-61
2023/06/12 04:26:20;;;;;;;3.77;3.47;;;24.20;76.60;;;;;;5043129;28;20458;-61
2023/06/12 04:28:47;;;;;;;4.50;4.20;;;24.20;76.70;;;;;;5043189;28;20795;-62
2023/06/12 04:31:15;;;;;;;3.40;3.10;;;24.20;76.70;;;;;;5042166;28;20865;-61
2023/06/12 04:33:42;;;;;;;3.33;3.00;;;24.20;76.70;;;;;;5043293;28;20455;-61
2023/06/12 04:36:13;;;;;;;4.00;3.57;;;24.20;76.70;;;;;;5045888;28;20459;-61
2023/06/12 04:38:40;;;;;;;3.90;3.60;;;24.20;76.70;;;;;;5047996;28;20460;-62
2023/06/12 04:41:09;;;;;;;3.90;3.60;;;24.20;76.70;;;;;;5052996;28;20968;-60
2023/06/12 04:43:36;;;;;;;3.40;3.10;;;24.20;76.80;;;;;;5049576;28;20946;-61
2023/06/12 04:46:05;;;;;;;4.03;3.73;;;24.20;76.80;;;;;;5048763;28;20552;-62
2023/06/12 04:48:32;;;;;;;3.83;3.53;;;24.20;76.80;;;;;;5046496;28;20811;-61
2023/06/12 04:50:58;;;;;;;4.23;3.93;;;24.20;76.80;;;;;;5051330;28;20458;-61
2023/06/12 04:53:29;;;;;;;3.60;3.30;;;24.20;76.80;;;;;;5043021;28;20469;-62
2023/06/12 04:55:56;;;;;;;3.37;3.17;;;24.20;76.80;;;;;;5049287;28;20535;-61
2023/06/12 04:58:24;;;;;;;3.77;3.47;;;24.20;76.80;;;;;;5045551;28;20482;-61
2023/06/12 05:00:55;;;;;;;3.67;3.30;;;24.20;76.90;;;;;;5040419;28;20831;-61
2023/06/12 05:03:22;;;;;;;3.73;3.50;;;24.20;76.90;;;;;;5048558;28;20949;-60
2023/06/12 05:05:49;;;;;;;3.57;3.27;;;24.20;77.00;;;;;;5047466;28;20458;-61
2023/06/12 05:08:15;;;;;;;3.97;3.60;;;24.20;77.00;;;;;;5042236;28;20470;-61
2023/06/12 05:10:42;;;;;;;3.37;3.13;;;24.20;77.00;;;;;;5043422;28;20461;-61
2023/06/12 05:13:09;;;;;;;3.77;3.47;;;24.20;77.00;;;;;;5046428;28;20466;-60
2023/06/12 05:15:37;;;;;;;3.57;3.27;;;24.20;77.00;;;;;;5046179;28;20454;-60
2023/06/12 05:18:04;;;;;;;3.63;3.33;;;24.20;77.00;;;;;;5052556;28;20524;-61
2023/06/12 05:20:31;;;;;;;3.40;3.10;;;24.20;77.00;;;;;;5054950;28;20468;-61
2023/06/12 05:22:57;;;;;;;3.40;3.10;;;24.20;77.00;;;;;;5049632;28;20462;-61
2023/06/12 05:25:24;;;;;;;4.00;3.57;;;24.20;77.10;;;;;;5052875;28;20970;-60
2023/06/12 05:27:51;;;;;;;3.50;3.20;;;24.20;77.20;;;;;;5048009;28;20511;-61
2023/06/12 05:30:18;;;;;;;3.40;3.10;;;24.20;77.30;;;;;;5049562;28;20461;-62
2023/06/12 05:32:46;;;;;;;3.33;3.03;;;24.20;77.50;;;;;;5059690;28;20449;-63
2023/06/12 05:35:13;;;;;;;3.10;2.90;;;24.20;77.50;;;;;;5042475;28;20979;-60
2023/06/12 05:37:40;;;;;;;3.20;2.87;;;24.20;78.30;;;;;;5047315;28;21012;-64
2023/06/12 05:40:09;;;;;;;3.93;3.07;;;24.20;77.70;;;;;;5049260;28;20454;-67
2023/06/12 05:42:36;;;;;;;3.17;2.97;;;24.20;77.70;;;;;;5041607;28;20515;-61
2023/06/12 05:45:03;;;;;;;3.50;3.20;;;24.20;77.70;;;;;;5036263;28;20542;-63
2023/06/12 05:47:30;;;;;;;3.10;2.90;;;24.20;77.70;;;;;;5045589;28;20464;-64
2023/06/12 05:49:58;;;;;;;3.00;2.80;;;24.20;77.80;;;;;;5045493;28;20560;-62
2023/06/12 05:52:25;;;;;;;3.63;3.33;;;24.20;77.80;;;;;;5042629;28;20469;-62
2023/06/12 05:54:51;;;;;;;5.03;4.10;;;24.20;77.90;;;;;;5047439;28;20559;-68
2023/06/12 05:57:18;;;;;;;3.07;2.80;;;24.20;77.90;;;;;;5031371;28;20481;-63
2023/06/12 05:59:47;;;;;;;3.90;3.10;;;24.20;78.10;;;;;;5043805;28;20499;-62
2023/06/12 06:02:14;;;;;;;3.33;2.90;;;24.20;78.20;;;;;;5044039;28;20529;-62
2023/06/12 06:04:40;;;;;;;3.33;3.03;;;24.20;78.30;;;;;;5039104;28;20540;-61
2023/06/12 06:07:11;;;;;;;4.00;3.70;;;24.20;78.20;;;;;;5050638;28;20871;-62
2023/06/12 06:09:38;;;;;;;3.03;2.80;;;24.20;78.30;;;;;;5041195;28;20454;-63
2023/06/12 06:12:05;;;;;;;3.50;3.20;;;24.20;78.20;;;;;;5041267;28;20457;-61
2023/06/12 06:14:32;;;;;;;3.73;3.43;;;24.20;78.30;;;;;;5042231;28;20458;-64
2023/06/12 06:16:58;;;;;;;3.47;3.17;;;24.20;78.20;;;;;;5044937;28;20508;-62
2023/06/12 06:19:25;;;;;;;3.20;2.93;;;24.20;78.30;;;;;;5044587;28;20512;-61
2023/06/12 06:21:52;;;;;;;3.70;3.40;;;24.20;78.20;;;;;;5046151;28;20839;-63
2023/06/12 06:24:20;;;;;;;3.50;3.20;;;24.20;78.20;;;;;;5044307;28;20482;-62
2023/06/12 06:26:47;;;;;;;3.40;3.13;;;24.20;78.20;;;;;;5046687;28;20545;-61
2023/06/12 06:29:14;;;;;;;3.83;3.53;;;24.20;78.20;;;;;;5054617;28;20454;-61
2023/06/12 06:31:41;;;;;;;3.87;3.57;;;24.20;78.20;;;;;;5048682;28;20485;-62
2023/06/12 06:34:07;;;;;;;4.00;3.60;;;24.20;78.20;;;;;;5043714;28;20465;-61
2023/06/12 06:36:35;;;;;;;5.60;4.53;;;24.20;78.10;;;;;;5039691;28;20462;-62
2023/06/12 06:39:03;;;;;;;4.23;3.70;;;24.20;76.40;;;;;;5043206;28;20477;-61
2023/06/12 06:41:31;;;;;;;3.77;3.47;;;24.20;77.10;;;;;;5044884;28;20461;-61
2023/06/12 06:43:58;;;;;;;3.40;3.10;;;24.20;78.10;;;;;;5034860;28;20465;-62
2023/06/12 06:46:24;;;;;;;5.17;4.23;;;24.20;77.50;;;;;;5034977;28;20462;-65
2023/06/12 06:48:51;;;;;;;4.40;4.00;;;24.20;76.80;;;;;;5035809;28;20469;-60
2023/06/12 06:51:18;;;;;;;4.30;3.97;;;24.20;77.20;;;;;;5035500;28;20465;-62
2023/06/12 06:53:45;;;;;;;4.37;3.97;;;24.20;77.20;;;;;;5043793;28;20486;-62
2023/06/12 06:56:12;;;;;;;6.13;4.43;;;24.20;77.10;;;;;;5036122;28;20458;-62
2023/06/12 06:58:40;;;;;;;5.97;4.73;;;24.20;76.40;;;;;;5047682;28;20477;-64
2023/06/12 07:01:07;;;;;;;5.07;4.67;;;24.20;75.80;;;;;;5042942;28;20462;-63
2023/06/12 07:03:33;;;;;;;5.83;4.70;;;24.20;75.70;;;;;;5044850;28;20449;-61
2023/06/12 07:06:00;;;;;;;4.67;4.27;;;24.20;75.90;;;;;;5039063;28;20457;-62
2023/06/12 07:08:27;;;;;;;4.70;4.30;;;24.20;76.10;;;;;;5053352;28;20508;-63
2023/06/12 07:10:53;;;;;;;5.20;4.80;;;24.20;76.20;;;;;;5052410;28;20466;-64
2023/06/12 07:13:20;;;;;;;4.63;4.23;;;24.20;76.20;;;;;;5040703;28;20639;-62
2023/06/12 07:15:48;;;;;;;5.57;4.00;;;24.20;76.30;;;;;;5049410;28;20880;-63
2023/06/12 07:18:15;;;;;;;5.67;5.17;;;24.20;76.30;;;;;;5055436;28;20500;-63
2023/06/12 07:20:41;;;;;;;4.57;4.20;;;24.20;76.30;;;;;;5051739;28;20469;-61
2023/06/12 07:23:08;;;;;;;5.43;4.90;;;24.20;76.40;;;;;;5053703;28;20516;-61
2023/06/12 07:25:36;;;;;;;6.40;4.57;;;24.20;76.40;;;;;;5058857;28;20453;-61
2023/06/12 07:28:03;;;;;;;4.13;3.83;;;24.20;76.50;;;;;;5046163;28;20470;-61
2023/06/12 07:30:30;;;;;;;6.00;4.70;;;24.20;76.50;;;;;;5044639;28;20542;-61
2023/06/12 07:32:58;;;;;;;4.97;4.33;;;24.20;76.50;;;;;;5052122;28;20815;-63
2023/06/12 07:35:25;;;;;;;4.43;4.03;;;24.20;76.60;;;;;;5053304;28;20457;-64
2023/06/12 07:37:51;;;;;;;4.30;4.00;;;24.20;76.50;;;;;;5050532;28;20481;-62
2023/06/12 07:40:18;;;;;;;4.43;4.03;;;24.20;76.60;;;;;;5047604;28;20515;-61
2023/06/12 07:42:45;;;;;;;5.10;4.70;;;24.20;76.60;;;;;;5047661;28;20969;-62
2023/06/12 07:45:12;;;;;;;6.00;4.37;;;24.20;76.70;;;;;;5054291;28;20461;-61
2023/06/12 07:47:39;;;;;;;12.93;4.27;;;24.20;76.80;;;;;;5054000;28;20439;-61
2023/06/12 07:50:08;;;;;;;4.43;4.03;;;24.20;76.80;;;;;;5048982;28;20463;-61
2023/06/12 07:52:35;;;;;;;4.80;4.30;;;24.20;76.80;;;;;;5044828;28;20628;-61
2023/06/12 07:55:03;;;;;;;4.20;3.80;;;24.20;76.80;;;;;;5042370;28;20515;-62
2023/06/12 07:57:30;;;;;;;4.43;4.10;;;24.20;76.90;;;;;;5050545;28;20488;-61
2023/06/12 07:59:57;;;;;;;3.97;3.53;;;24.20;76.90;;;;;;5042311;28;20462;-64
2023/06/12 08:02:28;;;;;;;4.77;4.37;;;24.20;77.00;;;;;;5043565;28;20470;-64
2023/06/12 08:04:55;;;;;;;5.63;3.73;;;24.20;77.10;;;;;;5050952;28;20465;-64
2023/06/12 08:07:26;;;;;;;5.27;4.77;;;24.20;77.10;;;;;;5049880;28;20473;-62
2023/06/12 08:09:53;;;;;;;6.00;4.37;;;24.20;77.10;;;;;;5050933;28;20442;-61
2023/06/12 08:12:20;;;;;;;6.37;4.87;;;24.20;77.10;;;;;;5048593;28;22322;-62
2023/06/12 08:14:48;;;;;;;3.77;3.47;;;24.20;77.20;;;;;;5044404;28;20458;-66
2023/06/12 08:17:15;;;;;;;4.97;4.57;;;24.20;77.20;;;;;;5049215;28;20462;-63
2023/06/12 08:19:42;;;;;;;5.50;5.00;;;24.20;77.20;;;;;;5044622;28;20465;-67
2023/06/12 08:22:09;;;;;;;4.40;4.00;;;24.30;78.20;;;;;;5048215;28;20454;-61
2023/06/12 08:24:38;;;;;;;3.87;3.57;;;24.30;77.40;;;;;;5049691;28;20973;-61
2023/06/12 08:27:05;;;;;;;4.30;3.90;;;24.20;77.30;;;;;;5048563;28;20882;-61
2023/06/12 08:29:33;;;;;;;4.30;4.00;;;24.30;77.50;;;;;;5048072;28;20462;-61
2023/06/12 08:31:59;;;;;;;5.70;4.40;;;24.30;77.50;;;;;;5047538;28;20453;-64
2023/06/12 08:34:26;;;;;;;4.27;3.97;;;24.20;77.40;;;;;;5038985;28;20544;-62
2023/06/12 08:36:54;;;;;;;4.67;4.30;;;24.30;77.60;;;;;;5041589;28;20466;-61
2023/06/12 08:39:21;;;;;;;5.33;3.90;;;24.30;77.60;;;;;;5048964;28;20517;-61
2023/06/12 08:41:59;;;;;;;4.37;3.97;;;24.30;77.70;;;;;;5048562;28;20441;-62
2023/06/12 08:44:26;;;;;;;3.87;3.50;;;24.20;77.50;;;;;;5052865;28;20473;-63
2023/06/12 08:46:55;;;;;;;4.50;4.20;;;24.30;77.70;;;;;;5053224;28;20453;-62
2023/06/12 08:49:22;;;;;;;4.27;3.87;;;24.30;77.70;;;;;;5045266;28;20457;-61
2023/06/12 08:51:50;;;;;;;4.13;3.83;;;24.30;77.70;;;;;;5048747;28;20519;-62
2023/06/12 08:54:18;;;;;;;4.33;3.93;;;24.30;77.70;;;;;;5045231;28;20447;-62
2023/06/12 08:56:45;;;;;;;4.30;3.90;;;24.30;77.80;;;;;;5042976;28;20467;-65
2023/06/12 08:59:14;;;;;;;3.60;3.30;;;24.30;77.90;;;;;;5037656;28;20527;-62
2023/06/12 09:01:41;;;;;;;4.40;4.10;;;24.30;78.00;;;;;;5045917;28;20454;-63
2023/06/12 09:04:16;;;;;;;4.10;3.80;;;24.30;78.00;;;;;;5039996;28;20831;-67
2023/06/12 09:06:45;;;;;;;4.13;3.83;;;24.30;78.20;;;;;;5045133;28;20503;-64
2023/06/12 09:09:12;;;;;;;4.50;3.80;;;24.30;78.10;;;;;;5048330;28;20462;-61
2023/06/12 09:11:38;;;;;;;5.70;4.60;;;24.30;78.20;;;;;;5046614;28;20969;-58
2023/06/12 09:14:06;;;;;;;5.60;4.20;;;24.30;78.50;;;;;;5040035;28;20831;-63
2023/06/12 09:16:34;;;;;;;4.03;3.73;;;24.30;78.50;;;;;;5047878;28;20462;-65
2023/06/12 09:19:01;;;;;;;4.77;4.10;;;24.30;78.40;;;;;;5046711;28;20482;-63
2023/06/12 09:21:28;;;;;;;4.60;4.20;;;24.30;78.60;;;;;;5048941;28;20458;-64
2023/06/12 09:23:56;;;;;;;4.30;3.90;;;24.40;78.70;;;;;;5047066;28;20473;-63
2023/06/12 09:26:23;;;;;;;5.53;3.70;;;24.40;78.60;;;;;;5039645;28;20892;-64
2023/06/12 09:28:53;;;;;;;3.93;3.63;;;24.30;78.30;;;;;;5042148;28;20992;-63
2023/06/12 09:31:20;;;;;;;3.97;3.67;;;24.30;78.40;;;;;;5044425;28;20813;-63
2023/06/12 09:33:51;;;;;;;3.43;3.13;;;24.30;78.30;;;;;;5047677;28;20463;-63
2023/06/12 09:36:20;;;;;;;4.80;4.03;;;24.30;78.20;;;;;;5041435;28;20486;-64
2023/06/12 09:38:49;;;;;;;5.10;3.97;;;24.30;78.30;;;;;;5045691;28;20482;-63
2023/06/12 09:41:15;;;;;;;3.77;3.33;;;24.30;78.30;;;;;;5045503;28;21057;-63
2023/06/12 09:43:42;;;;;;;4.50;4.10;;;24.30;78.40;;;;;;5041360;28;20457;-64
2023/06/12 09:46:09;;;;;;;3.67;3.37;;;24.30;78.40;;;;;;5046436;28;20453;-63
2023/06/12 09:48:36;;;;;;;3.70;3.40;;;24.30;78.50;;;;;;5044874;28;20874;-61
2023/06/12 09:51:07;;;;;;;4.93;4.47;;;24.40;78.60;;;;;;5046212;28;20465;-61
2023/06/12 09:53:39;;;;;;;4.77;3.00;;;24.40;78.50;;;;;;5046671;28;20454;-61
2023/06/12 09:56:07;;;;;;;5.33;3.80;;;24.30;78.50;;;;;;5047709;28;20466;-64
2023/06/12 09:58:37;;;;;;;3.13;2.83;;;24.30;78.70;;;;;;5035040;28;20512;-63
2023/06/12 10:01:06;;;;;;;4.00;3.70;;;24.40;78.80;;;;;;5045819;28;20489;-60
2023/06/12 10:03:37;;;;;;;4.70;4.30;;;24.40;78.90;;;;;;5039451;28;20466;-60
2023/06/12 10:06:07;;;;;;;4.17;3.87;;;24.40;79.00;;;;;;5038551;28;20461;-60
2023/06/12 10:08:34;;;;;;;4.30;3.73;;;24.40;79.30;;;;;;5040727;28;20454;-61
2023/06/12 10:11:02;;;;;;;4.10;3.60;;;24.40;79.40;;;;;;5047970;28;20969;-61
2023/06/12 10:13:29;;;;;;;3.40;3.10;;;24.40;79.40;;;;;;5041714;28;20803;-54
2023/06/12 10:15:57;;;;;;;7.67;3.93;;;24.40;79.50;;;;;;5047024;28;20461;-63
2023/06/12 10:18:25;;;;;;;5.33;3.87;;;24.50;79.80;;;;;;5041562;28;20493;-64
2023/06/12 10:20:54;;;;;;;3.93;3.53;;;24.40;79.60;;;;;;5049034;28;20477;-64
2023/06/12 10:23:22;;;;;;;3.90;3.50;;;24.40;79.70;;;;;;5051910;28;20489;-65
2023/06/12 10:25:50;;;;;;;3.97;3.60;;;24.50;79.80;;;;;;5050031;28;20442;-64
2023/06/12 10:28:18;;;;;;;5.97;4.30;;;24.50;80.00;;;;;;5046204;28;20457;-65
2023/06/12 10:31:11;;;;;;;3.87;3.57;;;24.40;79.90;;;;;;5046702;28;20471;-65
2023/06/12 10:33:38;;;;;;;3.80;3.40;;;24.50;80.00;;;;;;5044654;28;20465;-64
2023/06/12 10:36:11;;;;;;;3.80;3.50;;;24.50;80.00;;;;;;5052410;28;20442;-64
2023/06/12 10:38:47;;;;;;;3.23;2.97;;;24.40;79.80;;;;;;5056426;28;20481;-64
2023/06/12 10:41:29;;;;;;;3.43;3.13;;;24.40;79.90;;;;;;5045379;28;20454;-65
2023/06/12 10:43:56;;;;;;;4.53;3.30;;;24.40;79.90;;;;;;5047228;28;20461;-64
2023/06/12 10:46:22;;;;;;;3.90;3.50;;;24.40;79.90;;;;;;5046353;28;20969;-64
2023/06/12 10:48:49;;;;;;;4.53;3.60;;;24.40;79.80;;;;;;5043873;28;20466;-63
2023/06/12 10:51:16;;;;;;;3.50;3.20;;;24.40;79.90;;;;;;5051660;28;20511;-64
2023/06/12 10:53:45;;;;;;;3.47;3.17;;;24.40;79.90;;;;;;5043143;28;20458;-65
2023/06/12 10:56:12;;;;;;;11.30;4.30;;;24.40;79.90;;;;;;5054984;28;20464;-64
2023/06/12 10:58:41;;;;;;;4.10;3.80;;;24.40;79.80;;;;;;5053803;28;20481;-63
2023/06/12 11:01:09;;;;;;;3.60;3.30;;;24.40;79.80;;;;;;5049931;28;20458;-64
2023/06/12 11:03:39;;;;;;;3.60;3.30;;;24.40;79.90;;;;;;5051092;28;20475;-64
2023/06/12 11:06:13;;;;;;;3.73;3.43;;;24.40;79.80;;;;;;5046222;28;20492;-64
2023/06/12 11:08:41;;;;;;;4.27;3.30;;;24.40;79.80;;;;;;5051210;28;20533;-64
2023/06/12 11:11:09;;;;;;;3.97;3.67;;;24.40;79.80;;;;;;5052298;28;20541;-64
2023/06/12 11:13:39;;;;;;;6.40;4.13;;;24.40;80.50;;;;;;5046926;28;20465;-64
2023/06/12 11:16:06;;;;;;;4.50;3.97;;;24.40;79.80;;;;;;5049199;28;20454;-64
2023/06/12 11:18:33;;;;;;;3.30;2.97;;;24.40;79.80;;;;;;5045615;28;20481;-64
2023/06/12 11:21:00;;;;;;;4.30;3.90;;;24.40;79.70;;;;;;5051122;28;20445;-64
2023/06/12 11:23:28;;;;;;;4.77;4.37;;;24.40;79.70;;;;;;5047015;28;20473;-64
2023/06/12 11:25:55;;;;;;;4.30;4.00;;;24.40;79.70;;;;;;5048985;28;20460;-64
2023/06/12 11:28:24;;;;;;;3.50;3.20;;;24.40;79.60;;;;;;5058204;28;20460;-65
2023/06/12 11:30:52;;;;;;;3.67;3.37;;;24.40;79.60;;;;;;5054810;28;20470;-64
2023/06/12 11:33:19;;;;;;;3.10;2.90;;;24.40;79.60;;;;;;5051061;28;20478;-66
2023/06/12 11:35:47;;;;;;;3.97;3.67;;;24.40;79.60;;;;;;5048642;28;20442;-64
2023/06/12 11:38:16;;;;;;;3.97;3.67;;;24.40;79.60;;;;;;5049538;28;20515;-64
2023/06/12 11:40:43;;;;;;;2.87;2.67;;;24.40;79.60;;;;;;5053865;28;20477;-64
2023/06/12 11:43:10;;;;;;;4.27;3.87;;;24.40;80.40;;;;;;5043013;28;20458;-66
2023/06/12 11:45:41;;;;;;;4.20;3.80;;;24.40;79.60;;;;;;5052715;28;20495;-69
2023/06/12 11:48:13;;;;;;;3.97;3.60;;;24.40;79.60;;;;;;5051137;28;20458;-65
2023/06/12 11:50:40;;;;;;;5.13;4.00;;;24.40;79.60;;;;;;5046537;28;20584;-67
2023/06/12 11:53:06;;;;;;;3.60;3.30;;;24.40;79.50;;;;;;5055317;28;20454;-66
2023/06/12 11:55:33;;;;;;;3.87;3.57;;;24.40;79.50;;;;;;5052959;28;20461;-64
2023/06/12 11:58:02;;;;;;;4.17;3.77;;;24.40;79.60;;;;;;5047477;28;20492;-63
2023/06/12 12:00:30;;;;;;;4.00;3.60;;;24.50;79.70;;;;;;5050694;28;20477;-64
2023/06/12 12:03:02;;;;;;;4.00;3.67;;;24.40;79.50;;;;;;5042473;28;21061;-62
2023/06/12 12:05:34;;;;;;;4.33;3.93;;;24.40;79.60;;;;;;5044799;28;20966;-63
2023/06/12 12:08:03;;;;;;;4.20;3.80;;;24.50;79.80;;;;;;5045139;28;20466;-62
2023/06/12 12:10:31;;;;;;;3.77;3.47;;;24.40;79.60;;;;;;5044946;28;20461;-63
2023/06/12 12:13:00;;;;;;;3.00;2.80;;;24.50;79.80;;;;;;5039722;28;20499;-63
2023/06/12 12:15:29;;;;;;;4.03;3.73;;;24.50;79.70;;;;;;5049342;28;20515;-64
2023/06/12 12:17:56;;;;;;;3.90;3.40;;;24.50;79.70;;;;;;5042078;28;20527;-64
2023/06/12 12:20:25;;;;;;;3.57;3.23;;;24.50;79.80;;;;;;5044432;28;21012;-64
2023/06/12 12:22:53;;;;;;;3.83;3.50;;;24.40;79.50;;;;;;5045624;28;20446;-64
2023/06/12 12:25:21;;;;;;;4.00;3.40;;;24.40;79.60;;;;;;5046112;28;20490;-63
2023/06/12 12:27:51;;;;;;;4.13;3.37;;;24.40;79.50;;;;;;5043016;28;21028;-63
2023/06/12 12:30:19;;;;;;;3.63;3.40;;;24.50;79.60;;;;;;5042084;28;20516;-62
2023/06/12 12:32:47;;;;;;;3.17;2.93;;;24.40;79.50;;;;;;5047248;28;20777;-62
2023/06/12 12:35:15;;;;;;;4.30;3.93;;;24.50;79.60;;;;;;5042022;28;20454;-63
2023/06/12 12:37:43;;;;;;;4.00;3.70;;;24.50;79.60;;;;;;5047277;28;20462;-62
2023/06/12 12:40:13;;;;;;;3.77;3.47;;;24.40;79.50;;;;;;5052566;28;20505;-64
2023/06/12 12:42:41;;;;;;;3.97;3.60;;;24.40;79.50;;;;;;5050384;28;20806;-62
2023/06/12 12:45:09;;;;;;;4.40;3.63;;;24.40;79.50;;;;;;5040767;28;20446;-64
2023/06/12 12:47:37;;;;;;;3.90;3.60;;;24.50;79.60;;;;;;5044192;28;20462;-63
2023/06/12 12:50:04;;;;;;;5.10;2.83;;;24.50;79.60;;;;;;5044896;28;20921;-62
2023/06/12 12:52:31;;;;;;;3.30;3.00;;;24.50;79.60;;;;;;5036851;28;20470;-63